Meteo Giornale » Osservazioni meteo Italia » Verona-Villafranca

ore: 22:50 - Osservazioni Meteo Verona-Villafranca
Lat. 45° 23' N Lon. 10° 52' E Alt. 67 metri s.l.m.

sereno Europe/Rome

9 °C

Sereno

Temp. 24 Ore

4 °C

18 °C

Nord/NOvest

7.4 Km/h

Dew point 5 °C

Umidità 75 %

Visibilità  10 Km

Il sole sorge alle ore 06:05

Il sole tramonta alle ore 20:22

Data e Ora Cielo e Fenomeni T °C DP °C Um. % Pres. hPa Vis. km Vento km/h
Oggi h: 22:50 sereno Sereno 9 5 75 1017 10 N/NO 7.4
Oggi h: 22:20 sereno Sereno 9 5 75 1017 10 N 7.4
Oggi h: 21:50 sereno Sereno 11 5 66 1016 10 N 3.7
Oggi h: 21:20 sereno Sereno 12 4 57 1016 10 N 5.5
Oggi h: 20:50 sereno Sereno 13 5 58 1016 10 N 5.5
Oggi h: 20:20 sereno Sereno 14 4 50 1016 10 SE 7.4
Oggi h: 19:50 poco_nuvoloso Poco Nuvoloso 16 4 44 1015 10 N 5.5
Oggi h: 19:20 poco_nuvoloso Poco Nuvoloso 17 3 39 1015 10 SE 7.4
Oggi h: 18:50 poco_nuvoloso Poco Nuvoloso 17 3 39 1015 10 S/SE 7.4
Oggi h: 18:20 poco_nuvoloso Poco Nuvoloso 17 4 41 1015 10 S/SE 7.4
Oggi h: 17:50 poco_nuvoloso Poco Nuvoloso 16 4 44 1016 10 E/SE 7.4
Oggi h: 17:20 nuvoloso Nuvoloso 16 3 41 1016 10 E 9.3
Oggi h: 16:50 nuvoloso Nuvoloso 17 3 39 1016 10 E 11.1
Oggi h: 16:20 nuvoloso Nuvoloso 18 3 36 1016 10 SE 7.4
Oggi h: 15:50 molto_nuvoloso Molto Nuvoloso 18 3 36 1016 10 E/SE 7.4
Oggi h: 15:20 nuvoloso Nuvoloso 17 1 33 1016 10 N 7.4
Oggi h: 14:50 nuvoloso Nuvoloso 17 1 33 1016 10 E/SE 9.3
Oggi h: 14:20 nuvoloso Nuvoloso 17 1 33 1016 10 N 9.3
Oggi h: 13:50 poco_nuvoloso Poco Nuvoloso 18 2 34 1017 10 N 5.5
Oggi h: 13:20 poco_nuvoloso Poco Nuvoloso 17 1 33 1017 10 N 11.1
Oggi h: 12:50 sereno Sereno 16 -1 31 1017 10 E 9.3
Oggi h: 12:20 sereno Sereno 16 0 33 1017 10 E 11.1
Oggi h: 11:50 sereno Sereno 16 0 33 1017 10 E 11.1
Oggi h: 11:20 sereno Sereno 15 1 38 1017 10 E 11.1
Oggi h: 10:50 sereno Sereno 15 1 38 1017 10 E 13
Oggi h: 10:20 sereno Sereno 15 1 38 1017 10 E 7.4
Oggi h: 09:50 sereno Sereno 15 -2 30 1017 10 N 3.7
Oggi h: 09:20 sereno Sereno 14 -2 32 1016 10 N 5.5
Oggi h: 08:50 sereno Sereno 13 -1 37 1016 10 N 5.5
Oggi h: 08:20 sereno Sereno 12 -0 43 1016 10 N/NO 9.3
Oggi h: 07:50 sereno Sereno 10 -1 46 1015 10 N 5.5
Oggi h: 07:20 sereno Sereno 7 -1 56 1015 10 N 3.7
Oggi h: 06:50 sereno Sereno 5 -1 65 1015 10 N 5.5
Oggi h: 06:20 sereno Sereno 5 -2 60 1015 10 NO 7.4
Oggi h: 05:50 sereno Sereno 4 1 80 1015 10 N 5.5
Oggi h: 05:20 sereno Sereno 4 1 80 1014 10 N 5.5
Oggi h: 04:50 sereno Sereno 4 1 80 1014 10 N 3.7
Oggi h: 04:20 sereno Sereno 4 1 80 1014 10 N 5.5
Oggi h: 03:50 sereno Sereno 4 1 80 1014 10 N 1.8
Oggi h: 03:20 sereno Sereno 5 0 70 1013 10 N 3.7
Oggi h: 02:50 sereno Sereno 6 -1 60 1013 10 N 5.5
Oggi h: 02:20 sereno Sereno 7 -1 56 1013 10 N 3.7
Oggi h: 01:50 sereno Sereno 8 -2 49 1013 10 N 5.5
Oggi h: 01:20 sereno Sereno 8 -1 52 1013 10 N/NO 7.4
Oggi h: 00:50 sereno Sereno 8 -0 56 1013 10 N 14.8
Oggi h: 00:20 sereno Sereno 8 -0 56 1012 10 N 9.3
Ieri h: 23:50 sereno Sereno 8 1 61 1012 10 N 11.1